Latest Weather Observations for Dwellingup

IDW60801

Issued at 2:05 pm WST Saturday 25 October 2014 (issued every 30 minutes, with the page automatically refreshed every 10 minutes)

About weather observations | Map of weather stations | Latest weather observations for WA | Other Formats
Station Details ID: 009538 Name: DWELLINGUP Lat: -32.71 Lon: 116.06 Height: 267.0 m
Data from the previous 72 hours. | See also: Recent months at Dwellingup
Date/Time
WST
Temp
°C
App
Temp
°C
Dew
Point
Rel
Hum
%
Delta-T
°C
Wind Press
QNH
hPa
Press
MSL
hPa
Rain
since 9 am
mm
Dir
 
Spd
km/h
Gust
km/h
Spd
kts
Gust
kts
25/02:00pm 19.3 16.0 11.6 61 4.3 WNW 20 39 11 21 1017.4 1017.2 0.0
25/01:30pm 19.6 16.6 12.1 62 4.2 WNW 19 32 10 17 1017.5 1017.3 0.0
25/01:00pm 19.2 16.1 11.5 61 4.3 WNW 19 32 10 17 1017.6 1017.4 0.0
25/12:30pm 18.3 16.4 11.8 66 3.6 WNW 13 30 7 16 1017.7 1017.5 0.0
25/12:00pm 18.3 15.5 11.4 64 3.8 W 17 28 9 15 1017.9 1017.7 0.0
25/11:30am 18.1 15.4 10.2 60 4.3 W 15 33 8 18 1017.9 1017.7 0.0
25/11:00am 18.5 15.6 11.1 62 4.1 WNW 17 28 9 15 1018.0 1017.8 0.0
25/10:30am 18.9 16.6 10.5 58 4.6 W 13 28 7 15 1017.9 1017.7 0.0
25/10:00am 17.8 15.5 10.4 62 4.0 WSW 13 20 7 11 1018.0 1017.8 0.0
25/09:30am 17.4 15.0 11.4 68 3.3 W 15 28 8 15 1017.8 1017.6 0.0
25/09:00am 16.8 15.3 11.9 73 2.7 W 11 22 6 12 1017.6 1017.4 0.0
25/08:30am 16.3 14.9 13.4 83 1.6 W 13 22 7 12 1017.4 1017.2 0.0
25/08:00am 15.2 13.6 12.9 86 1.3 W 13 20 7 11 1017.1 1016.9 0.0
25/07:30am 15.3 14.3 13.5 89 1.0 WSW 11 19 6 10 1016.8 1016.5 0.0
25/07:00am 15.0 13.8 13.9 93 0.6 W 13 26 7 14 1016.7 1016.4 0.0
25/06:30am 14.3 12.8 13.2 93 0.6 W 13 24 7 13 1016.5 1016.2 0.0
25/06:00am 13.6 12.3 12.5 93 0.6 NW 11 19 6 10 1016.3 1016.0 0.0
25/05:30am 12.7 11.1 11.6 93 0.6 WNW 11 22 6 12 1016.0 1015.7 0.0
25/05:00am 11.5 9.9 10.2 92 0.7 NW 9 11 5 6 1015.8 1015.5 0.0
25/04:30am 10.6 8.8 9.4 92 0.6 NNW 9 11 5 6 1015.5 1015.3 0.0
25/04:00am 10.6 8.8 9.4 92 0.6 WNW 9 11 5 6 1015.4 1015.2 0.0
25/03:30am 10.7 8.9 9.5 92 0.6 WNW 9 15 5 8 1015.4 1015.2 0.0
25/03:00am 11.0 9.3 9.8 92 0.6 WNW 9 9 5 5 1015.2 1015.0 0.0
25/02:30am 11.2 10.8 9.9 92 0.7 NW 2 9 1 5 1015.3 1015.1 0.0
25/02:00am 11.1 11.1 9.7 91 0.7 CALM 0 0 0 0 1015.0 1014.8 0.0
25/01:30am 11.3 11.3 9.9 91 0.7 W 0 0 0 0 1015.4 1015.2 0.0
25/01:00am 11.7 11.8 10.3 91 0.7 CALM 0 0 0 0 1015.3 1015.1 0.0
25/12:30am 12.1 10.6 10.7 91 0.7 SSW 9 9 5 5 1015.5 1015.3 0.0
25/12:00am 12.0 10.1 10.4 90 0.8 SW 11 13 6 7 1015.8 1015.5 0.0
 
Date/Time
WST
Temp
°C
App
Temp
°C
Dew
Point
Rel
Hum
%
Delta-T
°C
Wind Press
QNH
hPa
Press
MSL
hPa
Rain
since 9 am
mm
Dir
 
Spd
km/h
Gust
km/h
Spd
kts
Gust
kts
24/11:30pm 12.1 10.1 10.3 89 0.9 SW 11 13 6 7 1015.9 1015.6 0.0
24/11:00pm 12.5 10.6 10.6 88 1.0 SW 11 17 6 9 1016.0 1015.7 0.0
24/10:30pm 12.9 10.7 10.8 87 1.1 SW 13 19 7 10 1016.1 1015.8 0.0
24/10:00pm 13.0 10.4 10.7 86 1.2 SW 15 19 8 10 1016.3 1016.0 0.0
24/09:30pm 13.3 11.1 10.8 85 1.3 SW 13 19 7 10 1016.3 1016.0 0.0
24/09:00pm 13.4 11.6 10.8 84 1.4 SW 11 15 6 8 1016.4 1016.1 0.0
24/08:30pm 13.5 11.3 10.7 83 1.5 WSW 13 17 7 9 1016.4 1016.1 0.0
24/08:00pm 13.9 11.6 10.5 80 1.8 SW 13 17 7 9 1016.3 1016.0 0.0
24/07:30pm 14.8 12.6 10.8 77 2.1 SW 13 17 7 9 1016.0 1015.7 0.0
24/07:00pm 16.0 13.7 10.5 70 2.9 SW 13 17 7 9 1016.0 1015.7 0.0
24/06:30pm 17.1 15.1 10.2 64 3.7 SW 11 17 6 9 1016.0 1015.7 0.0
24/06:00pm 18.3 15.9 10.2 59 4.4 SW 13 20 7 11 1015.8 1015.5 0.0
24/05:30pm 19.5 17.1 10.0 54 5.1 SW 13 24 7 13 1015.8 1015.5 0.0
24/05:00pm 20.6 17.6 10.7 53 5.5 WSW 17 30 9 16 1015.4 1015.2 0.0
24/04:30pm 21.4 18.7 10.3 49 6.1 WSW 15 24 8 13 1015.3 1015.1 0.0
24/04:00pm 22.2 19.7 11.0 49 6.3 SW 15 26 8 14 1015.2 1015.0 0.0
24/03:30pm 22.3 20.0 10.5 47 6.6 WSW 13 20 7 11 1015.2 1015.0 0.0
24/03:00pm 22.1 19.8 10.3 47 6.5 WNW 13 20 7 11 1015.2 1015.0 0.0
24/02:30pm 21.3 20.3 10.2 49 6.1 N 6 11 3 6 1015.4 1015.2 0.0
24/02:00pm 22.7 20.8 10.5 46 6.8 NW 11 19 6 10 1015.9 1015.6 0.0
24/01:30pm 22.0 19.6 10.2 47 6.5 NW 13 17 7 9 1016.2 1015.9 0.0
24/01:00pm 21.5 19.8 9.7 47 6.4 W 9 17 5 9 1016.4 1016.1 0.0
24/12:30pm 20.9 19.4 10.4 51 5.8 WSW 9 15 5 8 1016.7 1016.4 0.0
24/12:00pm 20.6 19.4 10.4 52 5.6 W 7 11 4 6 1017.0 1016.8 0.0
24/11:30am 20.1 18.4 9.7 51 5.6 W 9 13 5 7 1017.3 1017.1 0.0
24/11:00am 19.4 17.9 9.3 52 5.4 NNE 7 15 4 8 1017.8 1017.6 0.0
24/10:30am 19.7 19.0 9.9 53 5.3 N 4 13 2 7 1018.0 1017.8 0.0
24/10:00am 19.0 17.9 10.0 56 4.9 NNE 6 9 3 5 1018.3 1018.1 0.0
24/09:30am 17.4 15.1 9.1 58 4.4 E 11 17 6 9 1018.5 1018.3 0.0
24/09:00am 16.5 14.3 9.2 62 3.8 E 11 19 6 10 1018.7 1018.5 0.8
24/08:30am 15.2 13.3 10.6 74 2.5 E 11 19 6 10 1018.6 1018.4 0.8
24/08:00am 13.5 11.7 10.9 84 1.4 E 11 17 6 9 1018.5 1018.3 0.8
24/07:30am 12.5 10.8 11.2 92 0.7 ESE 11 15 6 8 1018.7 1018.5 0.8
24/07:00am 11.1 9.1 10.0 93 0.6 E 11 19 6 10 1018.7 1018.5 0.8
24/06:30am 10.2 7.9 9.1 93 0.6 ESE 11 15 6 8 1018.5 1018.3 0.8
24/06:00am 9.8 7.0 8.7 93 0.5 SE 13 19 7 10 1018.2 1018.0 0.8
24/05:30am 9.5 6.7 8.4 93 0.5 ESE 13 17 7 9 1018.2 1018.0 0.8
24/05:00am 9.5 6.3 8.4 93 0.5 SE 15 19 8 10 1018.0 1017.8 0.8
24/04:30am 9.3 6.4 8.2 93 0.5 SE 13 19 7 10 1017.9 1017.7 0.8
24/04:00am 9.5 6.3 8.4 93 0.5 SE 15 17 8 9 1017.9 1017.7 0.8
24/03:30am 9.7 6.9 8.6 93 0.5 ESE 13 17 7 9 1017.9 1017.7 0.8
24/03:00am 9.8 7.0 8.7 93 0.5 SE 13 15 7 8 1018.1 1017.9 0.8
24/02:30am 9.8 7.0 8.7 93 0.5 SE 13 17 7 9 1018.1 1017.9 0.8
24/02:00am 10.1 7.4 8.9 92 0.6 SE 13 17 7 9 1018.2 1018.0 0.8
24/01:30am 10.4 7.4 9.2 92 0.6 SE 15 17 8 9 1018.0 1017.8 0.8
24/01:00am 10.8 7.9 9.6 92 0.6 SSE 15 17 8 9 1018.0 1017.8 0.8
24/12:30am 11.1 8.3 9.9 92 0.6 SE 15 19 8 10 1018.2 1018.0 0.8
24/12:00am 11.4 8.6 10.1 92 0.7 SE 15 19 8 10 1018.3 1018.1 0.8
 
Date/Time
WST
Temp
°C
App
Temp
°C
Dew
Point
Rel
Hum
%
Delta-T
°C
Wind Press
QNH
hPa
Press
MSL
hPa
Rain
since 9 am
mm
Dir
 
Spd
km/h
Gust
km/h
Spd
kts
Gust
kts
23/11:30pm 11.6 9.3 10.3 92 0.7 SE 13 17 7 9 1018.3 1018.1 0.8
23/11:00pm 11.9 10.0 10.5 91 0.7 SE 11 13 6 7 1018.5 1018.3 0.8
23/10:30pm 12.6 10.5 11.2 91 0.7 S 13 17 7 9 1018.5 1018.3 0.8
23/10:00pm 12.5 10.3 10.9 90 0.8 S 13 17 7 9 1018.6 1018.4 0.8
23/09:30pm 13.1 11.0 11.3 89 1.0 SSW 13 19 7 10 1018.6 1018.4 0.8
23/09:00pm 13.6 11.7 11.7 88 1.0 SW 13 19 7 10 1018.6 1018.4 0.8
23/08:30pm 13.7 10.9 11.4 86 1.2 SW 17 26 9 14 1018.5 1018.3 0.8
23/08:00pm 13.7 11.2 11.2 85 1.3 WSW 15 22 8 12 1018.4 1018.2 0.8
23/07:30pm 14.5 12.1 11.5 82 1.6 WSW 15 24 8 13 1018.2 1018.0 0.8
23/07:00pm 15.3 13.0 11.7 79 2.0 W 15 17 8 9 1017.8 1017.6 0.8
23/06:30pm 15.9 14.3 11.5 75 2.4 W 11 17 6 9 1017.5 1017.3 0.8
23/06:00pm 16.9 15.7 11.6 71 2.9 WSW 9 19 5 10 1017.2 1017.0 0.8
23/05:30pm 17.7 15.3 11.5 67 3.4 WSW 15 24 8 13 1016.9 1016.6 0.8
23/05:00pm 17.8 16.5 11.4 66 3.5 WSW 9 17 5 9 1016.7 1016.4 0.8
23/04:30pm 18.7 17.0 11.3 62 4.1 WSW 11 20 6 11 1016.5 1016.2 0.8
23/04:00pm 18.7 16.2 11.0 61 4.2 WSW 15 24 8 13 1016.4 1016.1 0.8
23/03:30pm 19.5 17.6 13.0 66 3.7 W 15 32 8 17 1016.2 1015.9 0.8
23/03:00pm 19.4 17.1 11.7 61 4.3 W 15 24 8 13 1016.2 1015.9 0.8
23/02:30pm 19.0 17.6 13.4 70 3.2 W 13 26 7 14 1016.3 1016.0 0.8
23/02:00pm 17.5 16.1 13.4 77 2.3 W 13 28 7 15 1016.4 1016.1 0.8
23/01:30pm 17.2 15.8 13.3 78 2.2 W 13 19 7 10 1016.4 1016.1 0.8
23/01:00pm 17.7 15.5 12.2 70 3.1 W 15 26 8 14 1016.3 1016.0 0.8
23/12:30pm 16.7 14.9 13.2 80 2.0 SW 15 26 8 14 1016.3 1016.0 0.6
23/12:00pm 16.8 15.0 13.3 80 2.0 SW 15 22 8 12 1016.3 1016.0 0.6
23/11:30am 16.4 15.0 13.3 82 1.8 W 13 19 7 10 1016.3 1016.0 0.6
23/11:00am 18.8 16.7 12.5 67 3.6 W 15 26 8 14 1016.0 1015.7 0.6
23/10:30am 18.2 16.1 13.5 74 2.7 W 17 32 9 17 1016.0 1015.7 0.6
23/10:00am 16.8 16.0 14.1 84 1.6 W 11 24 6 13 1015.9 1015.6 0.6
23/09:30am 16.0 14.6 13.3 84 1.5 W 13 19 7 10 1015.8 1015.5 0.6
23/09:00am 16.9 15.2 12.4 75 2.5 W 13 24 7 13 1015.2 1015.0 4.4
23/08:30am 17.1 15.5 13.8 81 1.9 WNW 15 30 8 16 1015.1 1014.9 4.4
23/08:00am 16.1 15.0 13.2 83 1.6 WNW 11 19 6 10 1014.9 1014.7 4.4
23/07:30am 15.6 14.7 13.6 88 1.1 WNW 11 22 6 12 1014.8 1014.6 4.4
23/07:00am 14.8 14.1 13.3 91 0.8 WNW 9 19 5 10 1014.5 1014.3 4.4
23/06:30am 14.6 13.2 13.3 92 0.7 WNW 13 20 7 11 1014.3 1014.1 4.4
23/06:00am 14.6 13.2 13.3 92 0.7 W 13 22 7 12 1014.0 1013.8 4.4
23/05:30am 14.6 13.6 13.3 92 0.7 WNW 11 20 6 11 1013.4 1013.1 4.4
23/05:00am 14.6 12.0 13.3 92 0.7 WNW 19 30 10 16 1013.1 1012.8 4.4
23/04:30am 14.4 13.3 13.1 92 0.7 NW 11 15 6 8 1012.9 1012.6 4.2
23/04:00am 14.4 13.3 13.0 91 0.8 NNW 11 17 6 9 1013.0 1012.7 4.2
23/03:30am 14.6 13.6 13.3 92 0.7 NNW 11 17 6 9 1013.0 1012.7 3.2
23/03:00am 14.3 13.5 13.0 92 0.7 NW 9 15 5 8 1013.2 1012.9 3.2
23/02:30am 14.1 12.9 12.8 92 0.7 WNW 11 17 6 9 1013.3 1013.0 3.2
23/02:00am 14.3 13.5 13.0 92 0.7 WNW 9 17 5 9 1013.3 1013.0 3.2
23/01:30am 13.6 12.6 12.3 92 0.7 NNW 9 13 5 7 1013.4 1013.1 1.8
23/01:00am 14.0 13.5 12.6 91 0.8 W 7 11 4 6 1013.4 1013.1 1.8
23/12:30am 14.3 13.8 12.7 90 0.9 W 7 13 4 7 1013.8 1013.6 1.8
23/12:00am 14.7 13.5 12.9 89 1.0 W 11 19 6 10 1014.3 1014.1 1.8
 
Date/Time
WST
Temp
°C
App
Temp
°C
Dew
Point
Rel
Hum
%
Delta-T
°C
Wind Press
QNH
hPa
Press
MSL
hPa
Rain
since 9 am
mm
Dir
 
Spd
km/h
Gust
km/h
Spd
kts
Gust
kts
22/11:30pm 15.2 13.1 13.6 90 0.9 WSW 17 30 9 16 1014.3 1014.1 1.2
22/11:00pm 15.4 14.1 13.8 90 0.9 W 13 19 7 10 1014.1 1013.9 1.2
22/10:30pm 15.7 14.3 13.5 87 1.2 WNW 13 20 7 11 1014.7 1014.5 0.8
22/10:00pm 15.7 14.1 12.8 83 1.6 WNW 13 19 7 10 1014.5 1014.3 0.0
22/09:30pm 15.5 13.9 12.8 84 1.5 WNW 13 26 7 14 1014.5 1014.3 0.0
22/09:00pm 15.3 13.7 12.8 85 1.4 NW 13 20 7 11 1014.6 1014.4 0.0
22/08:30pm 15.6 14.0 12.9 84 1.5 NW 13 22 7 12 1014.3 1014.1 0.0
22/08:00pm 15.9 14.4 13.0 83 1.6 NW 13 19 7 10 1013.7 1013.4 0.0
22/07:30pm 16.5 14.8 13.6 83 1.7 WNW 15 26 8 14 1013.5 1013.2 0.0
22/07:00pm 17.3 15.5 14.4 83 1.7 WNW 17 28 9 15 1013.2 1012.9 0.0
22/06:30pm 17.6 15.4 14.3 81 1.9 WNW 19 37 10 20 1013.0 1012.7 0.0
22/06:00pm 18.2 16.3 14.1 77 2.4 NW 17 32 9 17 1012.9 1012.6 0.0
22/05:30pm 19.0 16.7 13.0 68 3.4 WNW 17 33 9 18 1012.5 1012.2 0.0
22/05:00pm 20.2 17.6 13.9 67 3.7 NW 20 35 11 19 1012.3 1012.0 0.0
22/04:30pm 20.0 16.0 14.1 69 3.5 NW 28 50 15 27 1012.0 1011.7 0.0
22/04:29pm 20.1 16.1 14.2 69 3.5 NW 28 50 15 27 1012.0 1011.7 0.0
22/04:00pm 21.4 18.6 14.3 64 4.2 NW 22 41 12 22 1011.8 1011.5 0.0
22/03:46pm 21.4 17.1 13.3 60 4.7 NW 28 50 15 27 1011.5 1011.3 0.0
22/03:30pm 22.2 18.1 11.3 50 6.1 NW 24 44 13 24 1011.4 1011.2 0.0
22/03:00pm 23.5 19.2 10.6 44 7.2 NW 24 41 13 22 1011.3 1011.1 0.0
22/02:30pm 26.4 22.0 12.8 43 8.0 WNW 28 44 15 24 1011.0 1010.8 0.0
22/02:28pm 26.2 21.7 12.6 43 8.0 WNW 28 46 15 25 1011.0 1010.8 0.0

Other Formats:

Comma delimited format used in spreadsheet applications
http://www.bom.gov.au/fwo/IDW60801/IDW60801.94620.axf

JavaScript Object Notation format (JSON) in row-major order
http://www.bom.gov.au/fwo/IDW60801/IDW60801.94620.json